Time;durP1;ratioP1;P1;durP2;ratioP2;P2;SDS_P1;SDS_P2;PMS_P1;PMS_P2;Temp;Humidity;BMP_temperature;BMP_pressure;BME280_temperature;BME280_humidity;BME280_pressure;Samples;Min_cycle;Max_cycle;Signal;HPM_P1;HPM_P2
2022/10/16 00:01:16;;;;;;;24.98;19.20;;;;;;;12.38;97.30;99242.58;1741118;81;20092;-61
2022/10/16 00:03:44;;;;;;;30.90;21.07;;;;;;;12.39;97.46;99246.89;1750066;79;20937;-61
2022/10/16 00:06:12;;;;;;;27.45;19.10;;;;;;;12.37;97.48;99246.98;1755401;79;20895;-60
2022/10/16 00:08:39;;;;;;;27.35;20.97;;;;;;;12.38;97.55;99247.81;1772149;80;21436;-61
2022/10/16 00:11:11;;;;;;;23.20;19.02;;;;;;;12.38;97.59;99253.05;1768161;80;21096;-61
2022/10/16 00:13:41;;;;;;;27.42;20.62;;;;;;;12.39;97.66;99252.13;1741101;81;20939;-61
2022/10/16 00:16:09;;;;;;;24.07;18.52;;;;;;;12.40;97.58;99254.64;1774118;80;20954;-61
2022/10/16 00:18:37;;;;;;;26.62;19.37;;;;;;;12.39;97.47;99244.28;1747476;81;20930;-61
2022/10/16 00:21:14;;;;;;;27.10;20.45;;;;;;;12.36;97.49;99234.00;1770951;80;21035;-61
2022/10/16 00:23:41;;;;;;;26.82;20.05;;;;;;;12.35;97.45;99241.02;1769435;80;20971;-61
2022/10/16 00:26:11;;;;;;;;;;;;;;;12.36;97.53;99244.47;1760286;80;20934;-61
2022/10/16 00:28:38;;;;;;;21.85;17.00;;;;;;;12.36;97.76;99257.56;1761110;79;20109;-61
2022/10/16 00:31:07;;;;;;;25.37;19.23;;;;;;;12.35;97.92;99263.71;1758376;79;20879;-60
2022/10/16 00:33:34;;;;;;;26.12;18.15;;;;;;;12.36;97.86;99260.18;1753138;79;21481;-60
2022/10/16 00:36:02;;;;;;;27.32;18.23;;;;;;;12.39;97.91;99267.84;1754555;80;20966;-61
2022/10/16 00:38:29;;;;;;;23.95;18.05;;;;;;;12.40;97.92;99270.34;1755395;81;20915;-60
2022/10/16 00:40:56;;;;;;;22.22;17.87;;;;;;;12.43;97.96;99274.55;1754606;81;20966;-61
2022/10/16 00:43:45;;;;;;;25.43;17.92;;;;;;;12.45;97.91;99275.31;1745685;81;20926;-61
2022/10/16 00:46:30;;;;;;;22.20;17.12;;;;;;;12.46;98.04;99275.67;1751194;81;21153;-61
2022/10/16 00:49:15;;;;;;;22.13;16.57;;;;;;;12.47;97.99;99273.44;1756855;81;20899;-60
2022/10/16 00:51:47;;;;;;;24.63;18.80;;;;;;;12.52;97.90;99270.91;1758768;79;20930;-60
2022/10/16 00:54:29;;;;;;;21.27;15.45;;;;;;;12.49;98.01;99258.02;1747542;81;21555;-61
2022/10/16 00:57:02;;;;;;;24.10;16.20;;;;;;;12.47;98.02;99265.59;1706854;83;21503;-61
2022/10/16 00:59:33;;;;;;;22.15;15.38;;;;;;;12.51;97.85;99264.45;1734506;81;21106;-60
2022/10/16 01:02:00;;;;;;;19.07;14.25;;;;;;;12.49;97.88;99268.93;1727770;81;20935;-61
2022/10/16 01:04:40;;;;;;;21.90;15.10;;;;;;;12.47;97.95;99277.37;1727756;81;20963;-61
2022/10/16 01:07:47;;;;;;;21.60;15.72;;;;;;;12.47;98.02;99279.98;1679270;83;20982;-61
2022/10/16 01:10:25;;;;;;;20.48;15.03;;;;;;;12.46;98.11;99267.38;1758855;80;27256;-61
2022/10/16 01:13:05;;;;;;;19.10;14.25;;;;;;;12.48;98.10;99265.95;1757910;80;20995;-61
2022/10/16 01:15:50;;;;;;;22.13;16.02;;;;;;;12.49;98.36;99268.93;1715108;81;20966;-61
2022/10/16 01:18:27;;;;;;;20.57;15.53;;;;;;;12.49;98.36;99266.31;1720834;81;20928;-61
2022/10/16 01:21:08;;;;;;;17.50;13.28;;;;;;;12.49;98.42;99268.93;1749160;81;22106;-61
2022/10/16 01:23:43;;;;;;;20.75;14.28;;;;;;;12.49;98.59;99261.08;1755316;80;20966;-61
2022/10/16 01:26:36;;;;;;;19.25;14.65;;;;;;;12.49;98.59;99268.93;1659816;84;21062;-60
2022/10/16 01:29:22;;;;;;;18.60;13.78;;;;;;;12.51;98.60;99272.30;1652714;84;20983;-61
2022/10/16 01:31:57;;;;;;;19.35;13.95;;;;;;;12.55;98.67;99269.88;1647345;85;20962;-61
2022/10/16 01:34:31;;;;;;;18.07;13.80;;;;;;;12.57;98.57;99274.53;1644632;86;20958;-61
2022/10/16 01:37:11;;;;;;;19.92;13.30;;;;;;;12.59;98.63;99274.45;1686599;83;21507;-61
2022/10/16 01:39:42;;;;;;;19.37;14.15;;;;;;;12.60;98.60;99276.95;1686251;84;21251;-61
2022/10/16 01:42:26;;;;;;;20.10;14.28;;;;;;;12.63;98.63;99276.80;1685746;84;20979;-61
2022/10/16 01:44:55;;;;;;;18.50;14.58;;;;;;;12.65;98.70;99277.52;1687576;84;21508;-62
2022/10/16 01:47:25;;;;;;;18.82;13.22;;;;;;;12.67;98.73;99274.81;1686923;84;20969;-62
2022/10/16 01:49:54;;;;;;;20.43;14.25;;;;;;;12.67;98.83;99270.41;1681991;84;20982;-61
2022/10/16 01:52:24;;;;;;;16.15;14.23;;;;;;;12.67;98.74;99273.03;1684023;84;21036;-61
2022/10/16 01:54:54;;;;;;;20.10;13.95;;;;;;;12.67;98.69;99264.34;1682892;84;20875;-60
2022/10/16 01:57:24;;;;;;;18.90;14.03;;;;;;;12.66;98.47;99265.25;1689195;83;20982;-62
2022/10/16 01:59:56;;;;;;;18.67;13.50;;;;;;;12.61;98.41;99262.95;1686024;83;20927;-60
2022/10/16 02:02:23;;;;;;;18.42;13.62;;;;;;;12.56;98.40;99266.31;1684770;80;21087;-60
2022/10/16 02:05:05;;;;;;;;;;;;;;;12.50;98.45;99260.16;1745588;78;21824;-60
2022/10/16 02:07:32;;;;;;;17.15;12.53;;;;;;;12.47;98.53;99256.42;1801163;78;20094;-61
2022/10/16 02:10:00;;;;;;;16.90;13.87;;;;;;;12.43;98.43;99256.22;1804741;78;20925;-61
2022/10/16 02:12:32;;;;;;;15.98;12.90;;;;;;;12.36;98.44;99249.70;1794502;78;20882;-61
2022/10/16 02:14:59;;;;;;;15.50;12.98;;;;;;;12.33;98.61;99257.75;1776438;78;20955;-60
2022/10/16 02:17:26;;;;;;;16.07;12.78;;;;;;;12.28;98.62;99260.17;1812956;78;20926;-60
2022/10/16 02:19:56;;;;;;;16.93;13.13;;;;;;;12.25;98.58;99266.91;1812236;78;21152;-61
2022/10/16 02:22:28;;;;;;;14.80;12.50;;;;;;;12.21;98.56;99257.58;1801898;78;20929;-60
2022/10/16 02:25:15;;;;;;;17.20;12.78;;;;;;;12.17;98.53;99252.61;1775935;79;21458;-61
2022/10/16 02:28:21;;;;;;;15.75;12.40;;;;;;;12.14;98.65;99244.95;1747142;81;20938;-61
2022/10/16 02:30:52;;;;;;;13.18;11.05;;;;;;;12.11;98.65;99244.66;1778180;80;21084;-61
2022/10/16 02:33:22;;;;;;;12.98;11.43;;;;;;;12.08;98.72;99244.86;1771822;80;20858;-61
2022/10/16 02:35:50;;;;;;;16.77;12.45;;;;;;;12.05;98.69;99246.36;1773880;80;20935;-60
2022/10/16 02:38:18;;;;;;;15.08;12.50;;;;;;;12.02;98.79;99249.16;1756906;80;20903;-60
2022/10/16 02:40:45;;;;;;;14.90;12.35;;;;;;;12.03;99.03;99252.14;1724436;81;20920;-60
2022/10/16 02:43:12;;;;;;;13.70;11.85;;;;;;;12.04;99.08;99265.59;1755201;80;21039;-61
2022/10/16 02:45:39;;;;;;;16.77;12.75;;;;;;;12.06;99.20;99258.02;1760633;80;20965;-61
2022/10/16 02:48:06;;;;;;;16.17;11.95;;;;;;;12.09;99.24;99255.69;1737915;81;20899;-61
2022/10/16 02:50:33;;;;;;;16.62;12.90;;;;;;;12.13;99.19;99257.20;1749316;80;20955;-60
2022/10/16 02:53:00;;;;;;;16.32;12.37;;;;;;;12.14;99.22;99251.02;1754088;80;20986;-61
2022/10/16 02:55:27;;;;;;;15.45;13.05;;;;;;;12.15;99.11;99252.69;1751521;80;21060;-61
2022/10/16 02:57:54;;;;;;;14.78;12.58;;;;;;;12.14;99.21;99256.25;1745798;80;21768;-61
2022/10/16 03:00:21;;;;;;;15.00;12.55;;;;;;;12.18;99.25;99243.81;1762954;80;21467;-60
2022/10/16 03:02:47;;;;;;;14.55;11.40;;;;;;;12.22;99.42;99251.39;1717537;80;20975;-61
2022/10/16 03:05:15;;;;;;;17.80;13.50;;;;;;;12.26;99.57;99245.02;1748155;80;21027;-61
2022/10/16 03:07:42;;;;;;;14.15;12.25;;;;;;;12.31;99.71;99244.27;1752304;80;21893;-61
2022/10/16 03:10:08;;;;;;;14.80;13.22;;;;;;;12.36;99.68;99251.84;1748407;80;20913;-61
2022/10/16 03:12:35;;;;;;;13.88;12.03;;;;;;;12.42;99.78;99246.70;1758722;80;21478;-61
2022/10/16 03:15:02;;;;;;;14.58;12.63;;;;;;;12.47;99.79;99249.88;1757890;80;21511;-61
2022/10/16 03:17:29;;;;;;;14.63;12.65;;;;;;;12.52;99.77;99251.75;1743570;80;20975;-61
2022/10/16 03:19:55;;;;;;;15.33;13.40;;;;;;;12.57;99.69;99248.34;1752182;80;21077;-61
2022/10/16 03:22:22;;;;;;;14.15;11.73;;;;;;;12.63;99.81;99241.88;1748525;80;22128;-61
2022/10/16 03:24:49;;;;;;;13.88;12.43;;;;;;;12.67;99.66;99245.52;1751121;80;21834;-61
2022/10/16 03:27:15;;;;;;;16.30;12.60;;;;;;;12.72;99.63;99256.56;1749612;80;21525;-61
2022/10/16 03:29:42;;;;;;;13.93;11.93;;;;;;;12.74;99.58;99242.91;1755989;79;20967;-61
2022/10/16 03:32:09;;;;;;;17.75;11.20;;;;;;;12.78;99.58;99248.78;1755655;80;21860;-61
2022/10/16 03:34:35;;;;;;;13.17;11.77;;;;;;;12.83;99.50;99249.80;1755048;80;21390;-61
2022/10/16 03:37:02;;;;;;;13.90;12.17;;;;;;;12.87;99.54;99244.73;1756720;80;20904;-61
2022/10/16 03:39:29;;;;;;;16.15;11.93;;;;;;;12.88;99.62;99252.95;1763010;80;21567;-61
2022/10/16 03:41:56;;;;;;;12.10;10.80;;;;;;;12.90;99.72;99254.53;1753895;80;21522;-61
2022/10/16 03:44:22;;;;;;;12.23;10.97;;;;;;;12.95;99.71;99245.08;1755199;80;21611;-61
2022/10/16 03:46:49;;;;;;;12.90;11.50;;;;;;;12.97;99.72;99245.83;1763033;80;20997;-61
2022/10/16 03:49:16;;;;;;;13.73;11.30;;;;;;;12.98;99.62;99263.22;1763094;79;20938;-61
2022/10/16 03:51:42;;;;;;;12.67;11.37;;;;;;;12.99;99.51;99267.51;1760074;81;20947;-61
2022/10/16 03:54:10;;;;;;;14.00;11.80;;;;;;;12.97;99.52;99249.75;1757415;80;20988;-61
2022/10/16 03:56:37;;;;;;;14.35;12.55;;;;;;;12.96;99.51;99244.13;1760982;80;21044;-61
2022/10/16 03:59:03;;;;;;;12.67;11.33;;;;;;;12.92;99.55;99253.97;1762647;80;21481;-60
2022/10/16 04:01:30;;;;;;;14.10;12.47;;;;;;;12.91;99.62;99264.53;1754047;81;21082;-61
2022/10/16 04:03:57;;;;;;;13.08;10.82;;;;;;;12.90;99.71;99264.17;1756485;80;21022;-61
2022/10/16 04:06:23;;;;;;;13.30;11.45;;;;;;;12.89;99.77;99258.58;1752707;80;20934;-61
2022/10/16 04:08:50;;;;;;;13.37;11.90;;;;;;;12.88;99.74;99262.11;1748658;81;21601;-61
2022/10/16 04:11:17;;;;;;;14.75;12.15;;;;;;;12.91;99.86;99268.47;1764982;80;21112;-60
2022/10/16 04:13:44;;;;;;;15.18;11.60;;;;;;;12.92;99.94;99263.62;1760249;79;21907;-61
2022/10/16 04:16:10;;;;;;;14.77;13.23;;;;;;;12.95;99.92;99274.73;1763229;80;20964;-62
2022/10/16 04:18:37;;;;;;;16.73;13.50;;;;;;;12.98;100.00;99276.32;1765239;79;20902;-60
2022/10/16 04:21:07;;;;;;;14.47;12.87;;;;;;;12.90;100.00;99255.01;1773094;79;21883;-62
2022/10/16 04:23:34;;;;;;;16.45;14.03;;;;;;;13.01;99.87;99270.88;1765113;79;21041;-61
2022/10/16 04:26:01;;;;;;;15.53;13.90;;;;;;;13.04;99.99;99272.47;1768462;80;21520;-61
2022/10/16 04:28:28;;;;;;;17.45;14.38;;;;;;;13.05;100.00;99272.38;1761732;81;21606;-61
2022/10/16 04:30:54;;;;;;;16.02;13.48;;;;;;;13.07;100.00;99267.86;1768532;80;21535;-61
2022/10/16 04:33:21;;;;;;;16.30;14.60;;;;;;;13.10;100.00;99280.76;1769458;79;21474;-61
2022/10/16 04:35:48;;;;;;;18.83;14.73;;;;;;;13.13;100.00;99283.18;1771431;79;20909;-61
2022/10/16 04:38:14;;;;;;;16.33;14.33;;;;;;;13.13;100.00;99280.56;1759733;80;21178;-61
2022/10/16 04:40:43;;;;;;;18.00;14.57;;;;;;;13.17;100.00;99271.57;1750296;81;20950;-61
2022/10/16 04:43:10;;;;;;;15.32;13.75;;;;;;;13.18;100.00;99275.86;1817864;77;20971;-61
2022/10/16 04:45:36;;;;;;;;;;;;;;;13.20;100.00;99273.99;1821505;77;20986;-61
2022/10/16 04:48:03;;;;;;;16.12;14.40;;;;;;;13.21;100.00;99278.28;1819356;77;20113;-60
2022/10/16 04:50:30;;;;;;;17.87;14.35;;;;;;;13.21;100.00;99273.03;1814008;78;20913;-62
2022/10/16 04:52:57;;;;;;;20.23;15.67;;;;;;;13.23;100.00;99265.56;1815110;78;21546;-61
2022/10/16 04:55:23;;;;;;;15.72;13.70;;;;;;;13.23;100.00;99272.95;1819043;77;21450;-60
2022/10/16 04:57:50;;;;;;;15.60;13.93;;;;;;;13.26;100.00;99287.20;1819150;78;21955;-62
2022/10/16 05:00:17;;;;;;;17.83;13.70;;;;;;;13.29;100.00;99286.16;1819643;78;21252;-61
2022/10/16 05:02:44;;;;;;;15.40;13.75;;;;;;;13.32;100.00;99284.64;1753273;81;21492;-61
2022/10/16 05:05:11;;;;;;;16.20;14.20;;;;;;;13.36;100.00;99287.42;1746612;81;20899;-61
2022/10/16 05:07:38;;;;;;;16.97;14.85;;;;;;;13.36;100.00;99284.80;1777681;80;20934;-61
2022/10/16 05:10:05;;;;;;;15.90;14.07;;;;;;;13.39;100.00;99288.56;1810696;78;21045;-61
2022/10/16 05:12:32;;;;;;;16.85;14.55;;;;;;;13.42;100.00;99287.88;1813825;78;20886;-61
2022/10/16 05:14:59;;;;;;;17.73;15.60;;;;;;;13.45;100.00;99288.16;1811260;78;20916;-61
2022/10/16 05:17:27;;;;;;;18.50;15.07;;;;;;;13.46;100.00;99279.33;1814903;78;20943;-60
2022/10/16 05:19:53;;;;;;;16.23;14.10;;;;;;;13.48;100.00;99282.70;1818518;78;20911;-61
2022/10/16 05:22:20;;;;;;;19.15;14.23;;;;;;;13.49;100.00;99285.69;1821766;78;22152;-60
2022/10/16 05:24:47;;;;;;;16.97;15.10;;;;;;;13.49;100.00;99292.23;1820239;78;20848;-60
2022/10/16 05:27:18;;;;;;;15.70;14.07;;;;;;;13.51;100.00;99302.17;1813958;78;20896;-61
2022/10/16 05:29:42;;;;;;;17.45;14.23;;;;;;;13.52;100.00;99291.20;1813863;78;21439;-60
2022/10/16 05:32:09;;;;;;;16.85;14.87;;;;;;;13.53;100.00;99298.14;1802720;78;20953;-61
2022/10/16 05:34:35;;;;;;;15.63;14.03;;;;;;;13.53;100.00;99293.73;1815589;78;21036;-61
2022/10/16 05:37:02;;;;;;;16.90;14.40;;;;;;;13.52;100.00;99290.72;1809454;78;20990;-60
2022/10/16 05:39:29;;;;;;;16.07;14.23;;;;;;;13.52;100.00;99292.03;1812412;78;20973;-61
2022/10/16 05:41:56;;;;;;;17.32;14.05;;;;;;;13.54;100.00;99310.31;1816054;78;21591;-61
2022/10/16 05:44:22;;;;;;;16.63;13.97;;;;;;;13.53;100.00;99309.47;1812719;77;20887;-61
2022/10/16 05:46:49;;;;;;;15.90;14.20;;;;;;;13.50;100.00;99310.98;1810045;77;21035;-60
2022/10/16 05:49:15;;;;;;;16.27;14.68;;;;;;;13.50;100.00;99307.50;1818752;78;20891;-60
2022/10/16 05:51:42;;;;;;;14.47;12.55;;;;;;;13.52;100.00;99320.89;1815970;78;20894;-60
2022/10/16 05:54:09;;;;;;;15.53;13.85;;;;;;;13.51;100.00;99327.08;1816822;78;21452;-60
2022/10/16 05:56:36;;;;;;;15.85;12.68;;;;;;;13.48;100.00;99332.53;1807587;78;20901;-60
2022/10/16 05:59:04;;;;;;;15.48;12.63;;;;;;;13.48;100.00;99331.22;1817877;78;20991;-60
2022/10/16 06:01:31;;;;;;;15.85;13.13;;;;;;;13.48;100.00;99340.40;1816569;78;20846;-60
2022/10/16 06:03:58;;;;;;;16.62;13.58;;;;;;;13.48;100.00;99346.95;1817182;78;20996;-60
2022/10/16 06:06:27;;;;;;;14.75;13.20;;;;;;;13.47;100.00;99343.98;1811299;78;21444;-60
2022/10/16 06:08:56;;;;;;;15.28;12.60;;;;;;;13.47;100.00;99351.84;1819853;78;36373;-60
2022/10/16 06:11:30;;;;;;;13.55;11.83;;;;;;;13.48;100.00;99353.52;1822833;78;21857;-61
2022/10/16 06:14:01;;;;;;;12.98;11.48;;;;;;;13.50;100.00;99359.51;1816917;78;20899;-60
2022/10/16 06:16:28;;;;;;;11.97;10.78;;;;;;;13.48;100.00;99349.58;1783751;78;20869;-61
2022/10/16 06:18:56;;;;;;;13.15;10.75;;;;;;;13.47;100.00;99345.29;1811610;78;20893;-61
2022/10/16 06:21:25;;;;;;;12.75;11.45;;;;;;;13.45;100.00;99353.72;1775330;80;21053;-61
2022/10/16 06:23:52;;;;;;;11.28;10.18;;;;;;;13.45;100.00;99353.72;1748925;81;21036;-60
2022/10/16 06:26:22;;;;;;;10.78;9.00;;;;;;;13.43;100.00;99351.66;1783410;80;21405;-60
2022/10/16 06:28:50;;;;;;;10.58;9.30;;;;;;;13.43;100.00;99346.41;1746671;80;20872;-60
2022/10/16 06:31:17;;;;;;;12.28;9.68;;;;;;;13.45;100.00;99353.72;1781858;80;20922;-60
2022/10/16 06:33:45;;;;;;;9.20;8.33;;;;;;;13.48;100.00;99356.14;1753818;81;20973;-61
2022/10/16 06:36:16;;;;;;;11.30;8.35;;;;;;;13.54;100.00;99353.11;1773596;80;21133;-61
2022/10/16 06:38:43;;;;;;;8.43;7.53;;;;;;;13.58;100.00;99353.30;1731379;81;20952;-61
2022/10/16 06:41:14;;;;;;;7.78;6.85;;;;;;;13.60;100.00;99365.81;1705851;82;20898;-61
2022/10/16 06:43:41;;;;;;;8.08;7.15;;;;;;;13.61;100.00;99370.14;1736813;81;20934;-61
2022/10/16 06:46:11;;;;;;;6.83;6.15;;;;;;;13.62;100.00;99369.19;1737104;82;20934;-60
2022/10/16 06:48:38;;;;;;;8.98;6.60;;;;;;;13.64;100.00;99372.56;1700921;84;21116;-61
2022/10/16 06:51:17;;;;;;;7.40;6.70;;;;;;;13.64;100.00;99379.12;1734840;82;20930;-61
2022/10/16 06:53:50;;;;;;;6.60;6.00;;;;;;;13.69;100.00;99360.91;1737011;82;21405;-61
2022/10/16 06:56:21;;;;;;;6.83;6.12;;;;;;;13.71;100.00;99352.48;1734703;82;21305;-61
2022/10/16 06:58:50;;;;;;;6.55;5.95;;;;;;;13.74;100.00;99358.83;1737591;82;20990;-61
2022/10/16 07:01:21;;;;;;;6.00;5.50;;;;;;;13.78;100.00;99355.05;1733988;82;21039;-61
2022/10/16 07:03:48;;;;;;;6.97;6.10;;;;;;;13.84;100.00;99357.30;1731505;82;20974;-61
2022/10/16 07:06:18;;;;;;;6.55;5.85;;;;;;;13.85;100.00;99361.11;1734641;82;20975;-61
2022/10/16 07:08:46;;;;;;;6.47;5.70;;;;;;;13.87;100.00;99368.41;1726574;81;21499;-60
2022/10/16 07:11:21;;;;;;;7.08;5.83;;;;;;;13.89;100.00;99368.30;1726669;82;20918;-60
2022/10/16 07:13:48;;;;;;;7.22;6.15;;;;;;;13.90;100.00;99366.54;1728536;82;21089;-63
2022/10/16 07:16:18;;;;;;;6.42;5.78;;;;;;;13.94;100.00;99366.21;1729664;81;20930;-62
2022/10/16 07:18:46;;;;;;;6.25;5.65;;;;;;;13.98;100.00;99362.45;1732501;82;21671;-61
2022/10/16 07:21:17;;;;;;;7.03;5.83;;;;;;;14.01;100.00;99359.63;1730949;82;21567;-62
2022/10/16 07:23:44;;;;;;;6.85;6.05;;;;;;;14.05;100.00;99374.20;1730469;82;20968;-60
2022/10/16 07:26:11;;;;;;;6.75;6.05;;;;;;;14.11;100.00;99386.08;1732580;82;21880;-61
2022/10/16 07:28:39;;;;;;;;;;;;;;;14.13;100.00;99382.89;1736500;82;20927;-61
2022/10/16 07:31:11;;;;;;;7.50;6.12;;;;;;;14.17;100.00;99390.08;1736322;82;20437;-61
2022/10/16 07:33:39;;;;;;;6.80;6.08;;;;;;;14.13;100.00;99399.12;1704807;83;20915;-61
2022/10/16 07:36:06;;;;;;;7.10;6.40;;;;;;;14.15;100.00;99404.64;1737281;82;20934;-62
2022/10/16 07:38:33;;;;;;;8.68;6.45;;;;;;;14.17;100.00;99401.89;1733701;81;21083;-60
2022/10/16 07:41:05;;;;;;;6.87;6.17;;;;;;;14.19;100.00;99402.64;1775349;80;21442;-60
2022/10/16 07:43:33;;;;;;;7.60;6.80;;;;;;;14.18;100.00;99407.53;1773936;79;20926;-61
2022/10/16 07:46:00;;;;;;;8.25;7.40;;;;;;;14.12;100.00;99420.59;1772335;79;20899;-61
2022/10/16 07:48:31;;;;;;;7.95;7.08;;;;;;;14.14;100.00;99428.36;1775503;79;20916;-61
2022/10/16 07:50:59;;;;;;;9.08;8.08;;;;;;;14.12;100.00;99427.64;1749150;81;21426;-61
2022/10/16 07:53:27;;;;;;;11.00;8.40;;;;;;;14.06;100.00;99428.41;1779538;78;21002;-61
2022/10/16 07:55:59;;;;;;;8.95;8.05;;;;;;;14.06;100.00;99433.66;1756825;80;21551;-61
2022/10/16 07:58:28;;;;;;;9.95;9.00;;;;;;;14.07;100.00;99424.83;1756219;81;20930;-61
2022/10/16 08:00:55;;;;;;;10.68;9.53;;;;;;;14.11;100.00;99435.97;1755500;80;21420;-61
2022/10/16 08:03:21;;;;;;;;;;;;;;;14.15;100.00;99435.31;1726002;81;21197;-61
2022/10/16 08:05:48;;;;;;;11.77;9.93;;;;;;;14.14;100.00;99448.88;1754956;79;20131;-61
2022/10/16 08:08:17;;;;;;;12.90;11.57;;;;;;;14.13;100.00;99454.25;1755664;81;21310;-61
2022/10/16 08:10:44;;;;;;;13.45;12.05;;;;;;;14.10;100.00;99453.50;1774034;80;21068;-61
2022/10/16 08:13:11;;;;;;;14.78;13.20;;;;;;;14.14;100.00;99445.42;1756422;79;20998;-61
2022/10/16 08:15:37;;;;;;;22.00;13.15;;;;;;;14.18;100.00;99446.44;1758969;81;21684;-61
2022/10/16 08:18:05;;;;;;;16.30;14.40;;;;;;;14.27;100.00;99454.17;1753355;81;20930;-61
2022/10/16 08:20:33;;;;;;;16.60;13.93;;;;;;;14.33;100.00;99445.88;1755521;81;20918;-60
2022/10/16 08:23:02;;;;;;;16.00;14.25;;;;;;;14.33;100.00;99451.13;1757302;81;20938;-61
2022/10/16 08:25:29;;;;;;;17.05;15.25;;;;;;;14.35;100.00;99444.00;1755586;79;20965;-61
2022/10/16 08:27:56;;;;;;;18.35;15.50;;;;;;;14.33;100.00;99448.03;1752337;79;21885;-61
2022/10/16 08:30:24;;;;;;;17.82;15.88;;;;;;;14.34;100.00;99452.84;1753051;81;20903;-61
2022/10/16 08:32:51;;;;;;;17.02;15.32;;;;;;;14.38;100.00;99456.92;1722466;81;20946;-61
2022/10/16 08:35:18;;;;;;;17.95;15.95;;;;;;;14.48;100.00;99458.00;1720914;81;20961;-61
2022/10/16 08:37:44;;;;;;;23.57;16.27;;;;;;;14.56;100.00;99475.87;1771021;80;20902;-62
2022/10/16 08:40:32;;;;;;;18.73;16.23;;;;;;;14.63;100.00;99468.44;1766910;79;21077;-61
2022/10/16 08:43:22;;;;;;;19.32;17.23;;;;;;;14.64;100.00;99467.48;1762680;79;20874;-61
2022/10/16 08:46:20;;;;;;;17.52;15.48;;;;;;;14.64;100.00;99471.42;1770782;79;20929;-61
2022/10/16 08:48:50;;;;;;;21.55;17.80;;;;;;;14.63;100.00;99472.38;1770891;80;20924;-61
2022/10/16 08:51:31;;;;;;;21.90;16.62;;;;;;;14.68;100.00;99476.86;1764729;79;21552;-61
2022/10/16 08:54:04;;;;;;;21.65;17.73;;;;;;;14.77;100.00;99476.22;1769942;79;21056;-61
2022/10/16 08:56:33;;;;;;;19.60;17.35;;;;;;;14.88;100.00;99481.58;1766647;79;20929;-60
2022/10/16 08:59:00;;;;;;;19.35;17.20;;;;;;;14.89;100.00;99485.88;1766369;80;20962;-61
2022/10/16 09:01:35;;;;;;;24.23;18.62;;;;;;;14.73;100.00;99477.36;1767931;80;21393;-60
2022/10/16 09:04:30;;;;;;;18.48;16.52;;;;;;;14.73;100.00;99477.36;1768718;80;20915;-60
2022/10/16 09:07:16;;;;;;;23.52;19.42;;;;;;;14.76;99.90;99503.46;1772222;80;20948;-60
2022/10/16 09:10:14;;;;;;;20.92;18.35;;;;;;;14.64;99.85;99501.64;1772295;80;20890;-61
2022/10/16 09:13:16;;;;;;;22.48;19.25;;;;;;;14.58;100.00;99499.44;1758213;80;21405;-61
2022/10/16 09:16:17;;;;;;;25.15;18.85;;;;;;;14.57;100.00;99497.77;1772584;79;20918;-61
2022/10/16 09:19:04;;;;;;;22.82;18.62;;;;;;;14.57;100.00;99498.59;1770707;80;20934;-60
2022/10/16 09:21:42;;;;;;;23.02;17.90;;;;;;;14.58;100.00;99503.38;1765585;80;21035;-61
2022/10/16 09:24:21;;;;;;;25.08;20.43;;;;;;;14.55;100.00;99501.31;1771602;79;21573;-60
2022/10/16 09:26:48;;;;;;;22.13;19.62;;;;;;;14.51;100.00;99499.82;1744697;79;20970;-61
2022/10/16 09:29:20;;;;;;;22.77;19.32;;;;;;;14.50;100.00;99503.38;1765308;79;20926;-61
2022/10/16 09:31:47;;;;;;;23.50;18.67;;;;;;;14.50;100.00;99500.74;1746349;80;20938;-61
2022/10/16 09:34:34;;;;;;;23.27;18.95;;;;;;;14.53;100.00;99496.63;1764654;79;21019;-61
2022/10/16 09:37:07;;;;;;;;;;;;;;;14.61;100.00;99497.44;1768962;79;20899;-63
2022/10/16 09:39:46;;;;;;;19.70;17.60;;;;;;;14.68;100.00;99509.23;1754115;79;20415;-62
2022/10/16 09:42:30;;;;;;;22.17;18.02;;;;;;;14.68;100.00;99516.27;1739785;81;20927;-62
2022/10/16 09:44:57;;;;;;;19.85;16.85;;;;;;;14.70;100.00;99516.98;1721517;81;21046;-61
2022/10/16 09:47:28;;;;;;;18.12;16.23;;;;;;;14.74;100.00;99522.42;1744906;81;21092;-62
2022/10/16 09:50:02;;;;;;;20.60;16.75;;;;;;;14.77;100.00;99526.16;1725656;82;20947;-62
2022/10/16 09:52:31;;;;;;;19.55;16.70;;;;;;;14.80;100.00;99523.31;1750273;80;20938;-62
2022/10/16 09:55:06;;;;;;;18.05;16.20;;;;;;;14.84;100.00;99514.27;1734016;82;20891;-61
2022/10/16 09:57:34;;;;;;;18.65;15.18;;;;;;;14.93;100.00;99507.09;1720211;82;20971;-63
2022/10/16 10:00:07;;;;;;;20.32;15.18;;;;;;;14.98;100.00;99506.30;1733718;82;20964;-60
2022/10/16 10:02:39;;;;;;;17.57;15.15;;;;;;;15.08;100.00;99510.91;1720847;82;20940;-60
2022/10/16 10:05:22;;;;;;;22.13;15.88;;;;;;;15.21;100.00;99523.59;1736168;81;20937;-61
2022/10/16 10:08:07;;;;;;;18.15;13.60;;;;;;;15.33;100.00;99525.34;1730534;81;20894;-60
2022/10/16 10:10:41;;;;;;;14.98;13.40;;;;;;;15.35;100.00;99530.03;1749513;81;20947;-60
2022/10/16 10:13:23;;;;;;;13.85;12.55;;;;;;;15.32;100.00;99538.15;1748325;81;21537;-60
2022/10/16 10:15:51;;;;;;;17.07;14.15;;;;;;;15.25;99.98;99533.41;1729241;82;20935;-60
2022/10/16 10:18:21;;;;;;;27.13;20.65;;;;;;;15.22;100.00;99534.46;1724044;82;20959;-59
2022/10/16 10:21:01;;;;;;;18.73;15.90;;;;;;;15.25;100.00;99534.25;1743573;81;21476;-60
2022/10/16 10:23:30;;;;;;;14.38;12.88;;;;;;;15.29;100.00;99534.42;1730285;81;21969;-60
2022/10/16 10:26:11;;;;;;;13.98;12.58;;;;;;;15.37;100.00;99542.59;1702217;82;21131;-60
2022/10/16 10:29:01;;;;;;;14.13;12.75;;;;;;;15.42;100.00;99551.00;1713820;82;21412;-60
2022/10/16 10:31:39;;;;;;;15.80;12.90;;;;;;;15.51;100.00;99547.36;1723059;82;20904;-60
2022/10/16 10:34:16;;;;;;;13.48;11.95;;;;;;;15.60;100.00;99546.70;1755598;80;20977;-61
2022/10/16 10:36:48;;;;;;;13.50;11.83;;;;;;;15.74;100.00;99551.89;1729427;81;21550;-60
2022/10/16 10:39:26;;;;;;;24.43;16.75;;;;;;;15.99;100.00;99552.73;1742213;81;21840;-60
2022/10/16 10:42:03;;;;;;;17.87;13.48;;;;;;;16.21;100.00;99550.22;1773320;79;20927;-60
2022/10/16 10:44:47;;;;;;;13.98;11.85;;;;;;;16.48;100.00;99554.42;1772776;80;20942;-60
2022/10/16 10:47:45;;;;;;;14.10;11.97;;;;;;;16.66;100.00;99550.39;1771213;80;20922;-61
2022/10/16 10:50:37;;;;;;;17.70;14.95;;;;;;;16.67;99.50;99557.36;1774829;79;20947;-61
2022/10/16 10:53:30;;;;;;;16.62;13.22;;;;;;;16.81;100.00;99553.72;1771024;79;21141;-61
2022/10/16 10:56:25;;;;;;;14.23;12.18;;;;;;;17.02;99.94;99549.91;1771973;78;21346;-60
2022/10/16 10:59:25;;;;;;;17.12;12.70;;;;;;;17.19;100.00;99544.66;1771621;80;20888;-62
2022/10/16 11:02:17;;;;;;;18.30;14.47;;;;;;;17.35;99.12;99545.14;1773668;80;20934;-62
2022/10/16 11:05:11;;;;;;;20.72;16.07;;;;;;;17.36;98.48;99546.81;1774764;79;20977;-62
2022/10/16 11:07:45;;;;;;;12.60;10.93;;;;;;;17.55;98.98;99545.38;1775126;80;21683;-61
2022/10/16 11:10:20;;;;;;;11.80;9.98;;;;;;;17.58;98.31;99538.05;1766743;80;21562;-61
2022/10/16 11:12:52;;;;;;;9.73;7.83;;;;;;;17.60;97.77;99536.13;1770203;80;21549;-61
2022/10/16 11:15:29;;;;;;;12.40;8.30;;;;;;;17.55;97.43;99533.02;1747518;81;21424;-61
2022/10/16 11:18:17;;;;;;;;;;;;;;;17.54;97.48;99540.58;1744799;80;20872;-60
2022/10/16 11:20:51;;;;;;;10.58;8.38;;;;;;;17.57;97.40;99538.19;1745050;81;21142;-61
2022/10/16 11:23:53;;;;;;;8.10;7.30;;;;;;;17.79;98.52;99537.34;1768033;80;20915;-61
2022/10/16 11:26:31;;;;;;;9.90;8.08;;;;;;;17.85;97.99;99532.89;1727844;81;21001;-61
2022/10/16 11:29:01;;;;;;;8.40;6.95;;;;;;;17.85;97.26;99528.92;1727111;81;21525;-61
2022/10/16 11:31:47;;;;;;;8.18;7.37;;;;;;;17.80;96.61;99524.49;1731214;82;20961;-61
2022/10/16 11:34:43;;;;;;;;;;;;;;;17.73;96.48;99529.86;1728002;81;21057;-60
2022/10/16 11:37:21;;;;;;;14.27;8.70;;;;;;;17.67;96.15;99542.62;1733257;81;20096;-60
2022/10/16 11:39:50;;;;;;;8.38;7.45;;;;;;;17.85;97.05;99539.49;1726122;82;20941;-61